Time;durP1;ratioP1;P1;durP2;ratioP2;P2;SDS_P1;SDS_P2;PMS_P1;PMS_P2;Temp;Humidity;BMP_temperature;BMP_pressure;BME280_temperature;BME280_humidity;BME280_pressure;Samples;Min_cycle;Max_cycle;Signal;HPM_P1;HPM_P2
2022/12/17 13:06:40;;;;;;;;;;;16.50;96.70;;;;;;5046824;28;20668;-73
2022/12/17 13:09:31;;;;;;;7.95;1.58;;;16.40;96.70;;;;;;5039554;28;20417;-73
2022/12/17 13:12:27;;;;;;;7.97;2.20;;;16.20;96.70;;;;;;5025684;28;20134;-73
2022/12/17 13:15:09;;;;;;;6.15;1.65;;;16.30;96.70;;;;;;5018949;28;20057;-73
2022/12/17 13:17:43;;;;;;;8.38;2.10;;;16.30;96.70;;;;;;5041594;28;20402;-73
2022/12/17 13:20:24;;;;;;;7.68;1.95;;;16.30;96.70;;;;;;5050070;28;20082;-73
2022/12/17 13:23:04;;;;;;;6.45;1.67;;;16.20;96.70;;;;;;5023214;28;20130;-73
2022/12/17 13:25:34;;;;;;;7.35;1.45;;;16.00;96.70;;;;;;5054005;28;20135;-73
2022/12/17 13:28:04;;;;;;;7.13;1.60;;;15.90;96.70;;;;;;5039398;28;20450;-72
2022/12/17 13:30:35;;;;;;;6.15;1.73;;;15.70;96.70;;;;;;5049381;28;20131;-73
2022/12/17 13:33:14;;;;;;;8.63;2.50;;;15.60;96.70;;;;;;5048099;28;20625;-73
2022/12/17 13:35:54;;;;;;;6.47;1.33;;;15.40;96.70;;;;;;5042530;28;20549;-73
2022/12/17 13:38:35;;;;;;;6.30;1.70;;;15.30;96.70;;;;;;5052891;28;20049;-71
2022/12/17 13:41:09;;;;;;;10.30;1.50;;;15.30;96.70;;;;;;5057092;28;20049;-72
2022/12/17 13:43:44;;;;;;;6.13;1.73;;;15.20;96.70;;;;;;5034323;28;20056;-73
2022/12/17 13:46:18;;;;;;;7.15;2.63;;;15.20;96.70;;;;;;5042173;28;20437;-72
2022/12/17 13:48:52;;;;;;;8.50;3.15;;;15.20;96.70;;;;;;5038604;28;20441;-72
2022/12/17 13:51:22;;;;;;;5.95;1.65;;;15.10;96.70;;;;;;5033964;28;20076;-73
2022/12/17 13:53:54;;;;;;;6.75;2.30;;;15.00;96.70;;;;;;5030881;28;20106;-72
2022/12/17 13:56:28;;;;;;;7.78;2.85;;;15.00;96.70;;;;;;5062666;28;20090;-72
2022/12/17 13:58:58;;;;;;;9.15;4.70;;;14.90;96.70;;;;;;5037648;28;20045;-72
2022/12/17 14:01:44;;;;;;;9.48;2.75;;;14.90;96.70;;;;;;5033588;28;20037;-72
2022/12/17 14:04:20;;;;;;;9.38;2.78;;;14.90;96.70;;;;;;5054030;28;20156;-72
2022/12/17 14:06:49;;;;;;;10.37;4.63;;;14.90;96.70;;;;;;5038223;28;20051;-72
2022/12/17 14:09:19;;;;;;;7.53;3.33;;;14.90;96.70;;;;;;5040677;28;20054;-73
2022/12/17 14:14:42;;;;;;;10.95;4.45;;;14.90;96.70;;;;;;5047909;28;20065;-74
2022/12/17 14:17:16;;;;;;;17.02;3.75;;;14.90;96.70;;;;;;5033372;28;20044;-74
2022/12/17 14:19:45;;;;;;;8.48;2.45;;;15.00;96.70;;;;;;5035790;28;20571;-75
2022/12/17 14:22:19;;;;;;;7.03;1.83;;;15.00;96.70;;;;;;5043526;28;20619;-74
2022/12/17 14:24:47;;;;;;;11.07;2.80;;;15.00;96.70;;;;;;5043817;28;20485;-74
2022/12/17 14:27:23;;;;;;;5.63;1.70;;;15.10;96.70;;;;;;5037786;28;20103;-74
2022/12/17 14:29:51;;;;;;;17.00;3.92;;;15.10;96.70;;;;;;5031177;28;20041;-74
2022/12/17 14:32:24;;;;;;;13.95;3.13;;;15.00;96.70;;;;;;5052499;28;20491;-74
2022/12/17 14:34:52;;;;;;;12.82;2.63;;;15.00;96.70;;;;;;5043015;28;20049;-74
2022/12/17 14:37:28;;;;;;;7.82;2.47;;;14.90;96.70;;;;;;5040686;28;20133;-74
2022/12/17 14:40:00;;;;;;;8.73;3.20;;;14.90;96.70;;;;;;5039929;28;20037;-74
2022/12/17 14:42:33;;;;;;;10.45;4.18;;;14.90;96.70;;;;;;5051856;28;20051;-73
2022/12/17 14:45:05;;;;;;;11.13;3.53;;;14.80;96.70;;;;;;5029438;28;20065;-73
2022/12/17 14:47:34;;;;;;;6.10;2.55;;;14.80;96.70;;;;;;5045147;28;20048;-73
2022/12/17 14:50:06;;;;;;;9.25;2.72;;;14.80;96.70;;;;;;5037651;28;20041;-73
2022/12/17 14:52:41;;;;;;;9.88;2.80;;;14.70;96.70;;;;;;5034067;28;20526;-73
2022/12/17 14:55:29;;;;;;;8.13;2.15;;;14.70;96.70;;;;;;5037182;28;20045;-73
2022/12/17 14:58:19;;;;;;;10.80;2.55;;;14.60;96.70;;;;;;5017224;28;20053;-73
2022/12/17 15:00:51;;;;;;;8.90;2.47;;;14.60;96.70;;;;;;5032410;28;20927;-73
2022/12/17 15:03:27;;;;;;;7.80;2.85;;;14.60;96.70;;;;;;5049382;28;20033;-74
2022/12/17 15:05:57;;;;;;;8.35;3.35;;;14.50;96.70;;;;;;5056288;28;20057;-74
2022/12/17 15:08:29;;;;;;;10.20;3.05;;;14.50;96.70;;;;;;5054908;28;20135;-74
2022/12/17 15:10:57;;;;;;;12.48;2.80;;;14.50;96.70;;;;;;5037636;28;20056;-74
2022/12/17 15:13:26;;;;;;;9.13;3.05;;;14.40;96.70;;;;;;5051480;28;20095;-74
2022/12/17 15:15:54;;;;;;;9.77;3.15;;;14.40;96.70;;;;;;5042427;28;20083;-74
2022/12/17 15:18:24;;;;;;;8.60;3.20;;;14.30;96.70;;;;;;5031181;28;20499;-74
2022/12/17 15:20:52;;;;;;;42.67;27.15;;;14.20;96.70;;;;;;5041229;28;20049;-74
2022/12/17 15:23:23;;;;;;;23.63;12.77;;;14.20;96.70;;;;;;5042060;28;20048;-74
2022/12/17 15:25:52;;;;;;;14.65;6.93;;;14.10;96.70;;;;;;5038820;28;20053;-75
2022/12/17 15:28:21;;;;;;;11.27;5.60;;;14.10;96.70;;;;;;5039662;28;20045;-75
2022/12/17 15:30:51;;;;;;;14.25;4.60;;;14.00;96.70;;;;;;5057461;28;20044;-75
2022/12/17 15:33:19;;;;;;;8.82;4.47;;;13.90;96.70;;;;;;5038754;28;20060;-75
2022/12/17 15:35:47;;;;;;;11.57;4.20;;;13.90;96.70;;;;;;5043168;28;20864;-75
2022/12/17 15:38:15;;;;;;;11.00;3.70;;;13.90;96.70;;;;;;5029654;28;20132;-76
2022/12/17 15:40:49;;;;;;;9.48;3.97;;;13.80;96.70;;;;;;5037385;28;20033;-77
2022/12/17 15:43:24;;;;;;;12.88;4.43;;;13.80;96.70;;;;;;5020925;28;20053;-76
2022/12/17 15:46:00;;;;;;;9.07;4.25;;;13.70;96.70;;;;;;5050911;28;20052;-76
2022/12/17 15:48:29;;;;;;;9.48;4.95;;;13.70;96.70;;;;;;5047212;28;20759;-76
2022/12/17 15:50:56;;;;;;;12.98;6.72;;;13.60;96.70;;;;;;5043567;28;20083;-76
2022/12/17 15:53:24;;;;;;;13.98;7.18;;;13.60;96.70;;;;;;5041787;28;20570;-77
2022/12/17 15:56:02;;;;;;;15.50;7.15;;;13.60;96.70;;;;;;5042097;28;20611;-77
2022/12/17 15:58:36;;;;;;;13.57;7.30;;;13.50;96.70;;;;;;5044979;28;20144;-76
2022/12/17 16:13:10;;;;;;;23.67;14.30;;;13.40;96.70;;;;;;5186139;22;2007825;-74
2022/12/17 16:15:42;;;;;;;20.80;14.70;;;13.20;96.70;;;;;;5079998;28;20063;-74
2022/12/17 16:18:12;;;;;;;23.42;13.07;;;13.10;96.70;;;;;;5072527;28;20040;-76
2022/12/17 16:20:45;;;;;;;18.38;11.25;;;13.10;96.70;;;;;;5062369;28;20526;-76
2022/12/17 16:23:17;;;;;;;19.58;12.45;;;13.10;96.70;;;;;;5051957;28;20469;-74
2022/12/17 16:25:54;;;;;;;20.13;14.45;;;13.10;96.70;;;;;;5089401;28;20443;-74
2022/12/17 16:28:25;;;;;;;29.92;19.83;;;13.00;96.70;;;;;;5087310;28;20043;-74
2022/12/17 16:31:04;;;;;;;29.20;19.92;;;13.00;96.70;;;;;;5078968;28;20055;-75
2022/12/17 16:33:34;;;;;;;33.53;25.15;;;12.90;96.70;;;;;;5089694;28;20048;-75
2022/12/17 16:36:07;;;;;;;41.03;30.05;;;12.90;96.70;;;;;;5093244;28;20382;-74
2022/12/17 16:38:43;;;;;;;25.85;19.10;;;12.90;96.70;;;;;;5081613;28;20044;-74
2022/12/17 16:41:13;;;;;;;28.05;18.98;;;12.90;96.70;;;;;;5081606;28;20040;-74
2022/12/17 16:43:43;;;;;;;28.67;16.92;;;12.90;96.70;;;;;;5084456;28;20044;-74
2022/12/17 16:46:25;;;;;;;31.90;18.10;;;12.90;96.70;;;;;;5078167;28;20513;-75
2022/12/17 16:48:55;;;;;;;31.25;17.10;;;12.90;96.70;;;;;;5085800;28;20060;-76
2022/12/17 16:51:26;;;;;;;20.65;12.82;;;12.80;96.70;;;;;;5078599;28;20040;-76
2022/12/17 16:53:57;;;;;;;21.00;10.88;;;12.80;96.70;;;;;;5066122;28;20044;-77
2022/12/17 16:56:27;;;;;;;16.45;10.32;;;12.80;96.70;;;;;;5071974;28;20064;-76
2022/12/17 16:58:57;;;;;;;16.38;8.85;;;12.70;96.70;;;;;;5080263;28;20051;-74
2022/12/17 17:01:28;;;;;;;16.13;9.27;;;12.70;96.70;;;;;;5074994;28;20085;-75
2022/12/17 17:03:57;;;;;;;18.88;9.80;;;12.70;96.70;;;;;;5080358;28;20047;-75
2022/12/17 17:06:26;;;;;;;19.85;9.48;;;12.70;96.70;;;;;;5080160;28;20040;-75
2022/12/17 17:09:03;;;;;;;14.20;8.93;;;12.70;96.70;;;;;;5090249;28;21007;-76
2022/12/17 17:11:31;;;;;;;14.80;9.63;;;12.70;96.70;;;;;;5080851;28;20145;-76
2022/12/17 17:14:02;;;;;;;17.83;10.00;;;12.70;96.70;;;;;;5076916;28;20117;-78
2022/12/17 17:16:30;;;;;;;16.73;9.63;;;12.70;96.70;;;;;;5071321;28;20143;-79
2022/12/17 17:19:00;;;;;;;16.20;9.15;;;12.70;96.70;;;;;;5068726;28;20132;-77
2022/12/17 17:21:30;;;;;;;14.80;9.75;;;12.60;96.70;;;;;;5065661;28;20041;-78
2022/12/17 17:24:01;;;;;;;14.90;9.50;;;12.60;96.70;;;;;;5067175;28;20063;-77
2022/12/17 17:26:32;;;;;;;17.77;10.38;;;12.70;96.70;;;;;;5078622;28;20068;-78
2022/12/17 17:29:03;;;;;;;13.35;9.70;;;12.60;96.70;;;;;;5070616;28;20127;-77
2022/12/17 17:31:32;;;;;;;17.30;10.93;;;12.60;96.70;;;;;;5081863;28;20059;-75
2022/12/17 17:34:20;;;;;;;21.48;11.98;;;12.60;96.70;;;;;;5072354;28;20068;-76
2022/12/17 17:36:48;;;;;;;41.05;26.70;;;12.50;96.70;;;;;;5076029;28;20047;-76
2022/12/17 17:39:16;;;;;;;35.45;23.80;;;12.50;96.70;;;;;;5065450;28;20423;-76
2022/12/17 17:41:44;;;;;;;37.30;24.30;;;12.50;96.70;;;;;;5072938;28;20051;-76
2022/12/17 17:44:15;;;;;;;30.75;21.25;;;12.50;96.70;;;;;;5069529;28;20045;-77
2022/12/17 17:46:46;;;;;;;28.25;21.27;;;12.50;96.70;;;;;;5065954;28;20501;-77
2022/12/17 17:49:15;;;;;;;29.70;18.77;;;12.50;96.70;;;;;;5063622;28;20064;-77
2022/12/17 17:51:43;;;;;;;26.27;17.23;;;12.40;96.70;;;;;;5077466;28;20227;-74
2022/12/17 17:54:31;;;;;;;24.45;16.15;;;12.40;96.70;;;;;;5068017;28;20798;-73
2022/12/17 17:56:59;;;;;;;22.20;13.27;;;12.30;96.70;;;;;;5073183;28;20476;-74
2022/12/17 17:59:31;;;;;;;18.10;10.90;;;12.30;96.70;;;;;;5064611;28;20045;-75
2022/12/17 18:02:02;;;;;;;16.05;10.35;;;12.30;96.70;;;;;;5061128;28;21303;-75
2022/12/17 18:04:30;;;;;;;13.82;8.95;;;12.30;96.70;;;;;;5082732;28;20121;-75
2022/12/17 18:06:58;;;;;;;17.70;9.15;;;12.30;96.70;;;;;;5072889;28;20390;-75
2022/12/17 18:09:46;;;;;;;16.88;9.45;;;12.30;96.70;;;;;;5070670;28;20044;-75
2022/12/17 18:15:03;;;;;;;20.05;11.18;;;12.40;96.70;;;;;;5076490;28;20056;-75
2022/12/17 18:17:41;;;;;;;18.05;11.23;;;12.50;96.70;;;;;;5063374;28;20049;-74
2022/12/17 18:20:11;;;;;;;22.80;15.38;;;12.50;96.70;;;;;;5062519;28;20059;-75
2022/12/17 18:22:39;;;;;;;24.80;17.38;;;12.40;96.70;;;;;;5062875;28;20051;-75
2022/12/17 18:25:08;;;;;;;224.02;206.05;;;12.30;96.70;;;;;;5073394;28;20079;-75
2022/12/17 18:27:36;;;;;;;55.67;50.45;;;12.20;96.70;;;;;;5080390;28;20036;-73
2022/12/17 18:30:06;;;;;;;29.30;24.52;;;12.20;96.70;;;;;;5063058;28;20075;-74
2022/12/17 18:32:34;;;;;;;23.30;20.73;;;12.20;96.70;;;;;;5069116;28;20093;-74
2022/12/17 18:35:03;;;;;;;22.23;17.80;;;12.10;96.70;;;;;;5082829;28;20151;-76
2022/12/17 18:37:31;;;;;;;18.70;14.65;;;12.10;96.70;;;;;;5072912;28;20044;-78
2022/12/17 18:39:59;;;;;;;23.48;18.20;;;12.20;96.70;;;;;;5063276;28;20028;-75
2022/12/17 18:45:16;;;;;;;19.27;14.77;;;12.60;96.70;;;;;;5068680;28;20054;-75
2022/12/17 18:47:44;;;;;;;23.33;14.82;;;12.60;96.70;;;;;;5062905;28;20037;-75
2022/12/17 18:50:12;;;;;;;25.02;16.98;;;12.60;96.70;;;;;;5063167;28;20056;-77
2022/12/17 18:52:40;;;;;;;20.95;14.50;;;12.40;96.70;;;;;;5065222;28;20827;-75
2022/12/17 18:55:08;;;;;;;35.67;22.70;;;12.40;96.70;;;;;;5064260;28;20441;-77
2022/12/17 18:57:36;;;;;;;30.55;20.33;;;12.30;96.70;;;;;;5077950;28;20122;-75
2022/12/17 19:00:06;;;;;;;30.77;19.58;;;12.30;96.70;;;;;;5068065;28;20047;-75
2022/12/17 19:02:35;;;;;;;27.42;17.75;;;12.40;96.70;;;;;;5067538;28;20101;-76
2022/12/17 19:05:03;;;;;;;25.10;17.48;;;12.40;96.70;;;;;;5082623;28;20040;-73
2022/12/17 19:07:31;;;;;;;25.38;16.88;;;12.40;96.70;;;;;;5074046;28;20115;-74
2022/12/17 19:10:00;;;;;;;23.27;16.48;;;12.40;96.70;;;;;;5062519;28;20068;-74
2022/12/17 19:12:28;;;;;;;143.95;102.15;;;12.40;96.70;;;;;;5074939;28;20040;-74
2022/12/17 19:14:56;;;;;;;38.63;27.13;;;12.40;96.70;;;;;;5078106;28;20058;-73
2022/12/17 19:17:25;;;;;;;42.58;26.88;;;12.30;96.70;;;;;;5075163;28;20052;-73
2022/12/17 19:19:54;;;;;;;51.20;31.45;;;12.30;96.70;;;;;;5065596;28;20105;-73
2022/12/17 19:22:22;;;;;;;47.85;32.08;;;12.40;96.70;;;;;;5066724;28;20486;-74
2022/12/17 19:24:50;;;;;;;32.45;20.83;;;12.40;96.70;;;;;;5064484;28;20110;-73
2022/12/17 19:27:18;;;;;;;21.50;14.70;;;12.20;96.70;;;;;;5066635;28;20040;-74
2022/12/17 19:29:47;;;;;;;31.98;19.10;;;12.10;96.70;;;;;;5069418;28;20059;-74
2022/12/17 19:32:19;;;;;;;21.95;15.07;;;12.00;96.70;;;;;;5078462;28;20053;-73
2022/12/17 19:34:47;;;;;;;25.48;16.05;;;12.00;96.70;;;;;;5065701;28;20088;-74
2022/12/17 19:37:17;;;;;;;24.17;16.25;;;11.80;96.70;;;;;;5061402;28;20128;-73
2022/12/17 19:39:46;;;;;;;23.77;15.23;;;11.80;96.70;;;;;;5080908;28;20047;-73
2022/12/17 19:42:23;;;;;;;19.88;13.70;;;11.80;96.70;;;;;;5063126;28;20587;-73
2022/12/17 19:44:52;;;;;;;22.40;14.10;;;11.80;96.70;;;;;;5073958;28;20040;-73
2022/12/17 19:47:21;;;;;;;21.40;13.90;;;11.90;96.70;;;;;;5071377;28;20509;-76
2022/12/17 19:49:50;;;;;;;23.00;14.38;;;12.00;96.70;;;;;;5072443;28;20496;-73
2022/12/17 19:52:19;;;;;;;26.08;16.85;;;12.00;96.70;;;;;;5066869;28;20358;-73
2022/12/17 19:54:48;;;;;;;29.73;18.00;;;11.80;96.70;;;;;;5076923;28;20127;-74
2022/12/17 19:57:16;;;;;;;28.67;16.98;;;11.70;96.70;;;;;;5073129;28;20052;-74
2022/12/17 19:59:45;;;;;;;22.30;14.95;;;11.60;96.70;;;;;;5078325;28;20043;-73
2022/12/17 20:02:15;;;;;;;24.02;15.80;;;11.40;96.70;;;;;;5072868;28;20508;-74
2022/12/17 20:04:44;;;;;;;24.90;15.55;;;11.40;96.70;;;;;;5068702;28;20032;-73
2022/12/17 20:07:12;;;;;;;24.10;15.80;;;11.30;96.70;;;;;;5070866;28;20420;-74
2022/12/17 20:09:44;;;;;;;28.38;15.95;;;11.30;96.70;;;;;;5072493;28;20051;-74
2022/12/17 20:15:40;;;;;;;31.35;19.35;;;11.30;96.70;;;;;;5044021;28;20045;-74
2022/12/17 20:18:09;;;;;;;26.40;18.33;;;11.30;96.70;;;;;;5042535;28;20080;-73
2022/12/17 20:20:37;;;;;;;27.42;18.13;;;11.30;96.70;;;;;;5042667;28;20598;-74
2022/12/17 20:23:06;;;;;;;26.50;17.63;;;11.30;96.70;;;;;;5050374;28;20501;-74
2022/12/17 20:25:36;;;;;;;29.05;18.50;;;11.20;96.70;;;;;;5042149;28;20045;-75
2022/12/17 20:28:05;;;;;;;21.70;15.80;;;11.10;96.70;;;;;;5043051;28;20037;-75
2022/12/17 20:30:34;;;;;;;20.10;14.13;;;10.90;96.70;;;;;;5042362;28;20051;-76
2022/12/17 20:33:02;;;;;;;22.23;14.95;;;10.90;96.70;;;;;;5044152;28;20045;-75
2022/12/17 20:35:31;;;;;;;22.60;15.32;;;10.90;96.70;;;;;;5039634;28;20452;-74
2022/12/17 20:37:59;;;;;;;29.05;19.33;;;10.90;96.70;;;;;;5041352;28;20045;-75
2022/12/17 20:40:28;;;;;;;29.63;20.00;;;10.90;96.70;;;;;;5043469;28;20492;-75
2022/12/17 20:42:58;;;;;;;26.38;19.08;;;10.90;96.70;;;;;;5044875;28;20053;-75
2022/12/17 20:45:26;;;;;;;27.30;19.08;;;11.00;96.70;;;;;;5060173;28;20056;-74
2022/12/17 20:47:55;;;;;;;27.02;19.58;;;10.90;96.70;;;;;;5050972;28;20060;-75
2022/12/17 20:50:24;;;;;;;30.15;22.58;;;11.00;96.70;;;;;;5054765;28;20060;-76
2022/12/17 20:52:53;;;;;;;44.28;30.60;;;10.90;96.70;;;;;;5059498;28;20047;-77
2022/12/17 20:55:22;;;;;;;47.47;31.63;;;10.90;96.70;;;;;;5049359;28;20045;-76
2022/12/17 20:57:59;;;;;;;41.20;28.75;;;10.90;96.70;;;;;;5055305;28;20044;-74
2022/12/17 21:00:28;;;;;;;35.33;25.30;;;10.90;96.70;;;;;;5040490;28;20135;-75
2022/12/17 21:02:56;;;;;;;39.42;26.20;;;10.90;96.70;;;;;;5055043;28;20178;-74
2022/12/17 21:05:26;;;;;;;35.17;24.20;;;10.90;96.70;;;;;;5054220;28;20106;-75
2022/12/17 21:07:55;;;;;;;35.22;23.42;;;10.90;96.70;;;;;;5062805;28;20486;-75
2022/12/17 21:10:23;;;;;;;35.47;21.80;;;10.80;96.70;;;;;;5061918;28;20039;-74
2022/12/17 21:15:40;;;;;;;;;;;10.80;96.70;;;;;;5074096;28;20044;-75
2022/12/17 21:18:08;;;;;;;28.55;17.63;;;10.80;96.70;;;;;;5075793;28;19923;-76
2022/12/17 21:20:37;;;;;;;25.00;17.33;;;10.80;96.70;;;;;;5069868;28;20457;-75
2022/12/17 21:23:06;;;;;;;25.77;16.30;;;10.70;96.70;;;;;;5071347;28;20048;-74
2022/12/17 21:25:34;;;;;;;22.17;15.13;;;10.70;96.70;;;;;;5076312;28;20064;-75
2022/12/17 21:28:03;;;;;;;19.02;13.50;;;10.70;96.70;;;;;;5071025;28;20040;-74
2022/12/17 21:30:35;;;;;;;19.67;13.80;;;10.60;96.70;;;;;;5075020;28;20109;-75
2022/12/17 21:33:05;;;;;;;19.55;13.45;;;10.50;96.70;;;;;;5078775;28;20048;-74
2022/12/17 21:35:34;;;;;;;19.70;13.05;;;10.50;96.70;;;;;;5072545;28;20040;-74
2022/12/17 21:38:02;;;;;;;21.80;13.88;;;10.50;96.70;;;;;;5071031;28;20032;-75
2022/12/17 21:40:38;;;;;;;16.00;10.30;;;10.50;96.70;;;;;;5072502;28;20078;-75
2022/12/17 21:43:09;;;;;;;15.73;8.20;;;10.50;96.70;;;;;;5072360;28;20044;-74
2022/12/17 21:45:39;;;;;;;11.35;7.88;;;10.50;96.70;;;;;;5070551;28;20113;-74
2022/12/17 21:48:11;;;;;;;14.43;8.80;;;10.50;96.70;;;;;;5074059;28;20048;-75
2022/12/17 21:50:43;;;;;;;25.02;11.95;;;10.50;96.70;;;;;;5071772;28;20177;-74
2022/12/17 21:53:12;;;;;;;32.45;17.50;;;10.50;96.70;;;;;;5071856;28;20040;-74
2022/12/17 21:55:41;;;;;;;35.30;18.40;;;10.40;96.70;;;;;;5070913;28;20044;-74
2022/12/17 21:58:10;;;;;;;31.60;17.65;;;10.40;96.70;;;;;;5052875;28;20050;-74
2022/12/17 22:00:41;;;;;;;27.25;14.70;;;10.40;96.70;;;;;;5070879;28;20114;-74
2022/12/17 22:03:12;;;;;;;22.67;14.43;;;10.40;96.70;;;;;;5073747;28;20063;-74
2022/12/17 22:05:41;;;;;;;25.75;15.05;;;10.50;96.70;;;;;;5092619;28;20436;-74
2022/12/17 22:08:14;;;;;;;22.05;12.85;;;10.40;96.70;;;;;;5067162;28;20051;-74
2022/12/17 22:10:46;;;;;;;19.48;10.63;;;10.30;96.70;;;;;;5077333;28;20503;-74
2022/12/17 22:16:06;;;;;;;14.75;8.43;;;10.20;96.70;;;;;;5076676;28;20313;-76
2022/12/17 22:18:41;;;;;;;10.15;7.75;;;10.30;96.70;;;;;;5065010;28;20048;-75
2022/12/17 22:21:10;;;;;;;10.65;7.72;;;10.20;96.70;;;;;;5081089;28;20102;-74
2022/12/17 22:23:39;;;;;;;11.05;7.45;;;10.30;96.70;;;;;;5084132;28;20059;-74
2022/12/17 22:26:09;;;;;;;10.93;7.40;;;10.30;96.70;;;;;;5078903;28;20556;-74
2022/12/17 22:28:38;;;;;;;16.70;10.68;;;10.30;96.70;;;;;;5081263;28;20414;-74
2022/12/17 22:34:00;;;;;;;20.35;13.23;;;10.20;96.70;;;;;;5081013;28;20429;-75
2022/12/17 22:36:49;;;;;;;18.98;12.48;;;10.10;96.70;;;;;;5062673;28;20051;-74
2022/12/17 22:39:53;;;;;;;20.27;12.98;;;10.20;96.70;;;;;;5080355;28;20093;-75
2022/12/17 22:45:49;;;;;;;14.07;10.48;;;10.20;96.70;;;;;;5078314;28;20044;-74
2022/12/17 22:48:17;;;;;;;12.80;8.75;;;10.20;96.70;;;;;;5070918;28;20052;-74
2022/12/17 22:50:48;;;;;;;17.25;9.65;;;10.20;96.70;;;;;;5078984;28;20783;-74
2022/12/17 22:53:35;;;;;;;14.93;9.40;;;10.30;96.70;;;;;;5064281;28;20107;-74
2022/12/17 22:56:07;;;;;;;11.27;7.78;;;10.30;96.70;;;;;;5068988;28;20293;-74
2022/12/17 22:58:56;;;;;;;11.90;7.70;;;10.30;96.70;;;;;;5074549;28;20603;-73
2022/12/17 23:01:25;;;;;;;12.63;7.60;;;10.30;96.70;;;;;;5073713;28;20067;-75
2022/12/17 23:03:55;;;;;;;11.90;7.50;;;10.20;96.70;;;;;;5072774;28;20044;-76
2022/12/17 23:06:26;;;;;;;14.60;8.43;;;10.20;96.70;;;;;;5074460;28;20066;-75
2022/12/17 23:08:55;;;;;;;13.43;8.43;;;10.20;96.70;;;;;;5070935;28;20902;-75
2022/12/17 23:11:25;;;;;;;13.23;9.02;;;10.20;96.70;;;;;;5079623;28;20246;-76
2022/12/17 23:13:55;;;;;;;13.73;8.90;;;10.20;96.70;;;;;;5074203;28;20040;-75
2022/12/17 23:16:23;;;;;;;14.40;9.00;;;10.20;96.70;;;;;;5064398;28;20051;-75
2022/12/17 23:18:52;;;;;;;17.55;10.57;;;10.20;96.70;;;;;;5070694;28;20044;-75
2022/12/17 23:21:23;;;;;;;12.90;9.23;;;10.10;96.70;;;;;;5065867;28;20106;-75
2022/12/17 23:23:54;;;;;;;12.45;8.15;;;10.10;96.70;;;;;;5078709;28;20040;-75
2022/12/17 23:26:25;;;;;;;14.95;8.27;;;10.00;96.70;;;;;;5083043;28;20131;-76
2022/12/17 23:29:00;;;;;;;12.68;8.88;;;10.10;96.70;;;;;;5073950;28;20135;-76
2022/12/17 23:31:36;;;;;;;11.43;6.32;;;10.00;96.70;;;;;;5078560;28;20135;-75
2022/12/17 23:34:06;;;;;;;10.20;6.82;;;10.00;96.70;;;;;;5061399;28;20139;-75
2022/12/17 23:36:36;;;;;;;9.98;5.38;;;10.00;96.70;;;;;;5083274;28;20048;-75
2022/12/17 23:39:07;;;;;;;10.32;7.57;;;9.90;96.70;;;;;;5076723;28;20576;-75
2022/12/17 23:41:36;;;;;;;9.32;6.05;;;9.90;96.70;;;;;;5072778;28;20052;-77
2022/12/17 23:44:04;;;;;;;8.45;5.55;;;9.80;96.70;;;;;;5058044;28;20463;-75
2022/12/17 23:46:39;;;;;;;8.63;5.60;;;9.80;96.70;;;;;;5080157;28;20554;-74
2022/12/17 23:49:09;;;;;;;6.65;5.07;;;9.80;96.70;;;;;;5069630;28;20052;-76
2022/12/17 23:51:38;;;;;;;10.90;5.53;;;9.90;96.70;;;;;;5072612;28;21527;-75
2022/12/17 23:54:09;;;;;;;9.23;6.35;;;9.90;96.70;;;;;;5079510;28;20059;-75
2022/12/17 23:56:40;;;;;;;6.90;5.30;;;10.00;96.70;;;;;;5077108;28;20059;-77
2022/12/17 23:59:09;;;;;;;12.07;7.20;;;9.90;96.70;;;;;;5065601;28;20671;-75
